createdAt,value
2019-04-27T00:00:49.028Z,100793.68
2019-04-27T00:04:57.287Z,100788.06
2019-04-27T00:09:03.497Z,100781.62
2019-04-27T00:13:07.505Z,100761.16
2019-04-27T00:17:41.313Z,100751.45
2019-04-27T00:21:40.790Z,100743.97
2019-04-27T00:25:44.279Z,100738.47
2019-04-27T00:29:48.138Z,100722.56
2019-04-27T00:33:53.441Z,100722.79
2019-04-27T00:38:15.095Z,100726.99
2019-04-27T00:42:18.649Z,100727.09
2019-04-27T00:46:22.895Z,100720.80
2019-04-27T00:50:26.694Z,100711.68
2019-04-27T00:54:30.193Z,100716.83
2019-04-27T00:58:38.415Z,100717.64
2019-04-27T01:02:43.890Z,100723.96
2019-04-27T01:06:47.566Z,100695.19
2019-04-27T01:10:51.396Z,100699.52
2019-04-27T01:14:54.885Z,100689.45
2019-04-27T01:18:58.956Z,100691.80
2019-04-27T01:23:02.507Z,100714.82
2019-04-27T01:27:18.820Z,100735.87
2019-04-27T01:31:23.391Z,100745.92
2019-04-27T01:35:26.887Z,100743.48
2019-04-27T01:39:30.655Z,100728.16
2019-04-27T01:43:34.141Z,100725.24
2019-04-27T01:47:39.159Z,100729.69
2019-04-27T01:51:42.861Z,100721.38
2019-04-27T01:55:46.351Z,100711.79
2019-04-27T01:59:50.279Z,100705.13
2019-04-27T02:03:55.397Z,100705.70
2019-04-27T02:07:59.373Z,100709.56
2019-04-27T02:12:03.117Z,100710.85
2019-04-27T02:16:08.907Z,100703.95
2019-04-27T02:20:12.734Z,100701.27
2019-04-27T02:24:16.203Z,100688.53
2019-04-27T02:28:27.392Z,100688.17
2019-04-27T02:32:32.893Z,100671.34
2019-04-27T02:36:39.010Z,100668.65
2019-04-27T02:40:51.505Z,100682.08
2019-04-27T02:44:55.227Z,100693.89
2019-04-27T02:49:03.179Z,100686.64
2019-04-27T02:53:03.935Z,100685.95
2019-04-27T02:57:09.888Z,100688.63
2019-04-27T03:01:12.808Z,100684.28
2019-04-27T03:05:22.116Z,100686.70
2019-04-27T03:09:25.622Z,100693.94
2019-04-27T03:13:33.285Z,100687.73
2019-04-27T03:17:54.429Z,100685.06
2019-04-27T03:22:05.377Z,100673.84
2019-04-27T03:26:16.377Z,100680.25
2019-04-27T03:30:22.607Z,100679.30
2019-04-27T03:34:25.198Z,100667.39
2019-04-27T03:38:30.145Z,100682.48
2019-04-27T03:42:37.347Z,100674.81
2019-04-27T03:46:40.159Z,100674.11
2019-04-27T03:50:50.418Z,100667.44
2019-04-27T03:55:10.469Z,100675.41
2019-04-27T03:59:15.630Z,100675.03
2019-04-27T04:03:20.295Z,100669.56
2019-04-27T04:07:24.433Z,100677.72
2019-04-27T04:11:35.905Z,100677.51
2019-04-27T04:15:46.857Z,100680.16
2019-04-27T04:19:57.561Z,100677.94
2019-04-27T04:23:55.641Z,100678.86
2019-04-27T04:28:00.594Z,100688.53
2019-04-27T04:32:04.453Z,100686.39
2019-04-27T04:36:10.109Z,100688.71
2019-04-27T04:40:13.314Z,100688.20
2019-04-27T04:44:34.716Z,100684.02
2019-04-27T04:48:40.447Z,100692.87
2019-04-27T04:52:43.984Z,100691.96
2019-04-27T04:56:49.390Z,100693.98
2019-04-27T05:00:52.691Z,100693.73
2019-04-27T05:04:56.202Z,100699.03
2019-04-27T05:09:00.143Z,100695.20
2019-04-27T05:13:03.646Z,100696.67
2019-04-27T05:17:07.177Z,100690.00
2019-04-27T05:21:18.564Z,100690.00
2019-04-27T05:25:22.448Z,100679.76
2019-04-27T05:29:26.101Z,100679.76
2019-04-27T05:33:29.598Z,100683.50
2019-04-27T05:37:33.111Z,100676.48
2019-04-27T05:41:37.397Z,100668.30
2019-04-27T05:46:01.341Z,100669.12
2019-04-27T05:50:09.075Z,100667.36
2019-04-27T05:54:12.992Z,100672.03
2019-04-27T05:58:16.495Z,100659.97
2019-04-27T06:02:20.359Z,100659.59
2019-04-27T06:06:25.551Z,100654.46
2019-04-27T06:10:32.033Z,100653.38
2019-04-27T06:14:35.627Z,100654.42
2019-04-27T06:18:39.523Z,100644.44
2019-04-27T06:22:43.778Z,100644.39
2019-04-27T06:26:47.272Z,100637.65
2019-04-27T06:30:51.150Z,100633.80
2019-04-27T06:34:54.646Z,100628.79
2019-04-27T06:38:58.948Z,100631.03
2019-04-27T06:43:02.907Z,100629.94
2019-04-27T06:47:06.458Z,100622.88
2019-04-27T06:51:10.016Z,100617.51
2019-04-27T06:55:14.039Z,100616.50
2019-04-27T06:59:18.633Z,100611.17
2019-04-27T07:03:22.277Z,100614.11
2019-04-27T07:07:25.785Z,100611.94
2019-04-27T07:11:29.702Z,100603.56
2019-04-27T07:15:33.438Z,100608.66
2019-04-27T07:19:37.274Z,100619.27
2019-04-27T07:23:48.839Z,100600.69
2019-04-27T07:27:52.689Z,100599.04
2019-04-27T07:31:56.191Z,100594.57
2019-04-27T07:35:59.693Z,100587.80
2019-04-27T07:40:03.608Z,100575.17
2019-04-27T07:44:15.146Z,100577.27
2019-04-27T07:48:18.900Z,100573.98
2019-04-27T07:52:22.406Z,100573.59
2019-04-27T07:56:25.900Z,100570.66
2019-04-27T08:00:29.482Z,100570.61
2019-04-27T08:04:32.994Z,100561.44
2019-04-27T08:08:36.461Z,100557.80
2019-04-27T08:12:39.958Z,100560.88
2019-04-27T08:16:43.475Z,100551.77
2019-04-27T08:20:46.950Z,100551.77
2019-04-27T08:24:50.645Z,100550.28
2019-04-27T08:29:08.604Z,100553.13
2019-04-27T08:33:13.759Z,100546.53
2019-04-27T08:37:18.798Z,100549.13
2019-04-27T08:41:22.426Z,100544.84
2019-04-27T08:45:25.915Z,100545.92
2019-04-27T08:49:29.404Z,100543.81
2019-04-27T08:53:32.906Z,100533.12
2019-04-27T08:57:36.405Z,100529.92
2019-04-27T09:01:39.946Z,100520.38
2019-04-27T09:05:43.432Z,100528.67
2019-04-27T09:09:49.815Z,100517.86
2019-04-27T09:13:54.994Z,100517.40
2019-04-27T09:17:59.809Z,100504.77
2019-04-27T09:22:16.149Z,100502.27
2019-04-27T09:26:14.812Z,100505.91
2019-04-27T09:30:19.191Z,100500.20
2019-04-27T09:34:22.650Z,100503.50
2019-04-27T09:38:26.568Z,100500.49
2019-04-27T09:42:30.462Z,100495.52
2019-04-27T09:46:36.383Z,100493.31
2019-04-27T09:50:40.354Z,100493.69
2019-04-27T09:54:43.938Z,100487.95
2019-04-27T09:58:47.394Z,100484.24
2019-04-27T10:02:50.883Z,100474.51
2019-04-27T10:06:54.374Z,100480.40
2019-04-27T10:10:57.877Z,100481.23
2019-04-27T10:15:01.360Z,100472.69
2019-04-27T10:19:05.019Z,100455.55
2019-04-27T10:23:08.514Z,100458.30
2019-04-27T10:27:12.053Z,100460.84
2019-04-27T10:31:15.884Z,100462.45
2019-04-27T10:35:19.797Z,100465.80
2019-04-27T10:39:23.286Z,100466.16
2019-04-27T10:43:26.779Z,100458.03
2019-04-27T10:47:30.648Z,100453.77
2019-04-27T10:51:36.327Z,100455.61
2019-04-27T10:55:39.848Z,100436.14
2019-04-27T10:59:43.656Z,100433.49
2019-04-27T11:03:57.554Z,100417.19
2019-04-27T11:08:01.206Z,100426.81
2019-04-27T11:12:06.759Z,100419.84
2019-04-27T11:16:10.688Z,100420.81
2019-04-27T11:20:15.097Z,100424.86
2019-04-27T11:24:18.589Z,100421.49
2019-04-27T11:28:22.081Z,100412.81
2019-04-27T11:32:25.871Z,100412.30
2019-04-27T11:36:30.983Z,100420.44
2019-04-27T11:40:34.462Z,100429.48
2019-04-27T11:44:37.954Z,100421.93
2019-04-27T11:48:43.192Z,100416.08
2019-04-27T11:52:47.470Z,100410.94
2019-04-27T11:56:50.957Z,100415.29
2019-04-27T12:00:55.950Z,100421.23
2019-04-27T12:05:07.647Z,100422.11
2019-04-27T12:09:11.402Z,100415.73
2019-04-27T12:13:18.142Z,100408.15
2019-04-27T12:17:21.623Z,100410.39
2019-04-27T12:21:25.524Z,100408.37
2019-04-27T12:25:31.818Z,100412.12
2019-04-27T12:29:53.749Z,100412.51
2019-04-27T12:33:59.028Z,100404.72
2019-04-27T12:38:02.691Z,100400.41
2019-04-27T12:42:06.189Z,100398.33
2019-04-27T12:46:09.670Z,100386.07
2019-04-27T12:50:14.517Z,100378.22
2019-04-27T12:54:19.679Z,100366.63
2019-04-27T12:58:27.220Z,100361.00
2019-04-27T13:02:36.457Z,100365.80
2019-04-27T13:06:40.031Z,100354.58
2019-04-27T13:10:45.160Z,100362.48
2019-04-27T13:14:48.645Z,100364.07
2019-04-27T13:18:52.131Z,100359.48
2019-04-27T13:22:55.621Z,100354.72
2019-04-27T13:26:59.103Z,100360.26
2019-04-27T13:31:02.605Z,100352.55
2019-04-27T13:35:07.981Z,100353.57
2019-04-27T13:39:11.555Z,100343.77
2019-04-27T13:43:16.793Z,100354.48
2019-04-27T13:47:21.914Z,100352.00
2019-04-27T13:51:32.791Z,100369.08
2019-04-27T13:55:36.286Z,100376.17
2019-04-27T13:59:41.704Z,100379.98
2019-04-27T14:03:46.954Z,100392.55
2019-04-27T14:07:50.791Z,100387.09
2019-04-27T14:11:57.624Z,100379.22
2019-04-27T14:16:01.234Z,100383.36
2019-04-27T14:20:05.619Z,100381.56
2019-04-27T14:24:09.922Z,100375.55
2019-04-27T14:28:13.787Z,100379.45
2019-04-27T14:32:18.768Z,100387.10
2019-04-27T14:36:22.384Z,100382.87
2019-04-27T14:40:28.737Z,100379.95
2019-04-27T14:44:32.381Z,100380.88
2019-04-27T14:48:35.854Z,100386.59
2019-04-27T14:52:40.894Z,100393.51
2019-04-27T14:56:44.918Z,100404.23
2019-04-27T15:00:49.867Z,100415.92
2019-04-27T15:04:53.808Z,100422.27
2019-04-27T15:08:57.242Z,100411.95
2019-04-27T15:13:01.538Z,100420.88
2019-04-27T15:17:06.884Z,100431.27
2019-04-27T15:21:10.672Z,100430.30
2019-04-27T15:25:15.710Z,100427.41
2019-04-27T15:29:25.362Z,100435.08
2019-04-27T15:33:46.821Z,100445.20
2019-04-27T15:37:50.959Z,100450.08
2019-04-27T15:42:07.976Z,100451.98
2019-04-27T15:46:08.301Z,100453.39
2019-04-27T15:50:12.176Z,100448.14
2019-04-27T15:54:15.664Z,100453.80
2019-04-27T15:58:24.855Z,100461.61
2019-04-27T16:02:24.825Z,100469.72
2019-04-27T16:06:28.319Z,100482.62
2019-04-27T16:10:32.698Z,100478.30
2019-04-27T16:14:40.885Z,100481.47
2019-04-27T16:18:42.623Z,100486.36
2019-04-27T16:22:46.181Z,100495.08
2019-04-27T16:26:52.226Z,100506.88
2019-04-27T16:30:55.554Z,100505.60
2019-04-27T16:34:59.314Z,100508.15
2019-04-27T16:39:08.178Z,100505.88
2019-04-27T16:43:09.681Z,100512.28
2019-04-27T16:47:18.775Z,100505.20
2019-04-27T16:51:18.842Z,100507.46
2019-04-27T16:55:22.352Z,100507.87
2019-04-27T16:59:40.903Z,100510.25
2019-04-27T17:03:31.573Z,100516.75
2019-04-27T17:07:37.622Z,100524.05
2019-04-27T17:11:43.608Z,100519.29
2019-04-27T17:15:55.060Z,100524.66
2019-04-27T17:20:01.327Z,100526.83
2019-04-27T17:24:05.130Z,100534.72
2019-04-27T17:28:12.854Z,100533.23
2019-04-27T17:32:20.700Z,100533.23
2019-04-27T17:36:24.192Z,100538.95
2019-04-27T17:40:29.823Z,100544.12
2019-04-27T17:44:32.887Z,100543.03
2019-04-27T17:48:37.962Z,100542.99
2019-04-27T17:52:41.712Z,100549.92
2019-04-27T17:56:49.564Z,100547.44
2019-04-27T18:00:50.706Z,100555.11
2019-04-27T18:04:54.184Z,100557.30
2019-04-27T18:09:00.523Z,100558.72
2019-04-27T18:13:02.897Z,100568.40
2019-04-27T18:17:10.348Z,100562.78
2019-04-27T18:21:12.719Z,100563.17
2019-04-27T18:25:18.697Z,100567.47
2019-04-27T18:29:27.051Z,100569.06
2019-04-27T18:33:32.547Z,100576.02
2019-04-27T18:37:34.588Z,100584.88
2019-04-27T18:41:44.474Z,100588.44
2019-04-27T18:45:44.895Z,100597.20
2019-04-27T18:50:07.458Z,100602.94
2019-04-27T18:54:03.543Z,100610.86
2019-04-27T18:58:06.963Z,100612.96
2019-04-27T19:02:10.460Z,100619.59
2019-04-27T19:06:13.956Z,100620.06
2019-04-27T19:10:19.242Z,100623.39
2019-04-27T19:14:22.824Z,100628.33
2019-04-27T19:18:26.323Z,100631.95
2019-04-27T19:22:30.013Z,100645.57
2019-04-27T19:26:50.732Z,100643.41
2019-04-27T19:31:10.696Z,100651.19
2019-04-27T19:35:14.202Z,100655.63
2019-04-27T19:39:18.203Z,100657.40
2019-04-27T19:43:22.275Z,100667.36
2019-04-27T19:47:25.765Z,100670.52
2019-04-27T19:51:29.237Z,100664.33
2019-04-27T19:55:32.745Z,100669.00
2019-04-27T19:59:38.133Z,100668.30
2019-04-27T20:03:43.381Z,100673.20
2019-04-27T20:07:48.239Z,100684.17
2019-04-27T20:11:51.971Z,100682.54
2019-04-27T20:16:01.305Z,100685.22
2019-04-27T20:20:07.175Z,100687.67
2019-04-27T20:24:11.818Z,100697.61
2019-04-27T20:28:15.692Z,100698.02
2019-04-27T20:32:21.368Z,100695.55
2019-04-27T20:36:24.548Z,100699.33
2019-04-27T20:40:28.034Z,100703.77
2019-04-27T20:44:31.535Z,100711.12
2019-04-27T20:48:35.024Z,100714.80
2019-04-27T20:52:43.177Z,100719.23
2019-04-27T20:56:46.648Z,100724.80
2019-04-27T21:00:51.792Z,100724.31
2019-04-27T21:04:57.287Z,100731.44
2019-04-27T21:09:02.858Z,100734.58
2019-04-27T21:13:06.220Z,100729.23
2019-04-27T21:17:11.712Z,100730.06
2019-04-27T21:21:15.272Z,100733.42
2019-04-27T21:25:19.014Z,100733.75
2019-04-27T21:29:22.694Z,100734.64
2019-04-27T21:33:26.205Z,100729.83
2019-04-27T21:37:30.745Z,100728.33
2019-04-27T21:41:34.535Z,100728.83
2019-04-27T21:45:38.324Z,100731.45
2019-04-27T21:49:41.917Z,100725.19
2019-04-27T21:54:02.419Z,100726.41
2019-04-27T21:58:05.892Z,100725.37
2019-04-27T22:02:12.094Z,100730.65
2019-04-27T22:06:15.974Z,100735.95
2019-04-27T22:10:20.921Z,100740.59
2019-04-27T22:14:24.429Z,100740.52
2019-04-27T22:18:27.904Z,100742.41
2019-04-27T22:22:35.751Z,100743.27
2019-04-27T22:26:39.346Z,100749.05
2019-04-27T22:30:43.706Z,100745.77
2019-04-27T22:34:47.209Z,100751.47
2019-04-27T22:38:51.634Z,100752.00
2019-04-27T22:43:15.292Z,100758.03
2019-04-27T22:47:19.151Z,100771.01
2019-04-27T22:51:22.641Z,100770.01
2019-04-27T22:55:26.261Z,100776.96
2019-04-27T22:59:37.561Z,100777.81
2019-04-27T23:03:42.674Z,100774.57
2019-04-27T23:07:46.157Z,100778.70
2019-04-27T23:11:51.535Z,100787.80
2019-04-27T23:15:56.705Z,100785.77
2019-04-27T23:20:01.345Z,100786.52
2019-04-27T23:24:05.083Z,100785.56
2019-04-27T23:28:10.188Z,100782.38
2019-04-27T23:32:15.373Z,100788.73
2019-04-27T23:36:18.864Z,100782.81
2019-04-27T23:40:22.616Z,100792.94
2019-04-27T23:44:26.090Z,100788.80
2019-04-27T23:48:29.562Z,100786.37
2019-04-27T23:52:52.506Z,100791.94
2019-04-27T23:56:56.202Z,100792.73
